createdAt,value
2022-10-05T00:00:26.440Z,12.15
2022-10-05T00:01:26.449Z,12.18
2022-10-05T00:02:26.414Z,12.19
2022-10-05T00:03:26.411Z,12.21
2022-10-05T00:04:26.376Z,12.16
2022-10-05T00:05:26.385Z,12.13
2022-10-05T00:06:26.361Z,12.12
2022-10-05T00:07:26.341Z,12.08
2022-10-05T00:08:26.359Z,12.08
2022-10-05T00:09:26.310Z,12.08
2022-10-05T00:10:26.312Z,12.07
2022-10-05T00:11:26.302Z,12.05
2022-10-05T00:12:26.305Z,12.07
2022-10-05T00:13:26.282Z,12.05
2022-10-05T00:14:26.281Z,12.04
2022-10-05T00:15:26.259Z,12.04
2022-10-05T00:16:26.290Z,12.04
2022-10-05T00:17:26.244Z,12.01
2022-10-05T00:18:26.235Z,12.00
2022-10-05T00:19:26.202Z,12.00
2022-10-05T00:20:26.212Z,11.98
2022-10-05T00:21:26.172Z,12.01
2022-10-05T00:22:26.184Z,12.00
2022-10-05T00:23:26.174Z,12.01
2022-10-05T00:24:26.169Z,11.97
2022-10-05T00:25:26.155Z,11.97
2022-10-05T00:26:26.146Z,11.94
2022-10-05T00:27:26.132Z,11.93
2022-10-05T00:28:26.182Z,11.87
2022-10-05T00:29:26.114Z,11.84
2022-10-05T00:30:26.095Z,11.82
2022-10-05T00:31:26.148Z,11.78
2022-10-05T00:32:26.105Z,11.78
2022-10-05T00:33:26.055Z,11.75
2022-10-05T00:34:26.046Z,11.72
2022-10-05T00:35:26.038Z,11.72
2022-10-05T00:36:26.048Z,11.70
2022-10-05T00:37:26.040Z,11.70
2022-10-05T00:38:26.010Z,11.69
2022-10-05T00:39:26.016Z,11.66
2022-10-05T00:40:25.995Z,11.67
2022-10-05T00:41:25.967Z,11.64
2022-10-05T00:42:25.969Z,11.66
2022-10-05T00:43:25.948Z,11.66
2022-10-05T00:44:25.970Z,11.64
2022-10-05T00:45:26.007Z,11.64
2022-10-05T00:46:25.919Z,11.63
2022-10-05T00:47:25.916Z,11.62
2022-10-05T00:48:25.898Z,11.62
2022-10-05T00:49:25.907Z,11.63
2022-10-05T00:50:25.875Z,11.63
2022-10-05T00:51:25.858Z,11.63
2022-10-05T00:52:25.871Z,11.64
2022-10-05T00:53:25.848Z,11.63
2022-10-05T00:54:25.851Z,11.64
2022-10-05T00:55:25.830Z,11.62
2022-10-05T00:56:25.818Z,11.63
2022-10-05T00:57:25.793Z,11.62
2022-10-05T00:58:25.801Z,11.62
2022-10-05T00:59:25.787Z,11.62
2022-10-05T01:00:25.779Z,11.60
2022-10-05T01:01:25.833Z,11.59
2022-10-05T01:02:25.801Z,11.62
2022-10-05T01:03:25.740Z,11.62
2022-10-05T01:04:25.761Z,11.59
2022-10-05T01:05:25.710Z,11.59
2022-10-05T01:06:25.701Z,11.57
2022-10-05T01:07:25.711Z,11.59
2022-10-05T01:08:25.714Z,11.57
2022-10-05T01:09:25.684Z,11.57
2022-10-05T01:10:25.660Z,11.57
2022-10-05T01:11:25.641Z,11.57
2022-10-05T01:12:25.643Z,11.54
2022-10-05T01:13:25.643Z,11.54
2022-10-05T01:14:25.652Z,11.51
2022-10-05T01:15:25.622Z,11.54
2022-10-05T01:16:25.674Z,11.53
2022-10-05T01:17:25.614Z,11.53
2022-10-05T01:18:25.582Z,11.53
2022-10-05T01:19:25.573Z,11.51
2022-10-05T01:20:25.564Z,11.51
2022-10-05T01:21:25.551Z,11.48
2022-10-05T01:22:25.543Z,11.46
2022-10-05T01:23:25.571Z,11.46
2022-10-05T01:24:25.538Z,11.46
2022-10-05T01:25:25.549Z,11.46
2022-10-05T01:26:25.530Z,11.44
2022-10-05T01:27:25.520Z,11.44
2022-10-05T01:28:25.586Z,11.44
2022-10-05T01:29:25.481Z,11.42
2022-10-05T01:30:25.483Z,11.44
2022-10-05T01:31:25.558Z,11.42
2022-10-05T01:32:25.452Z,11.44
2022-10-05T01:33:25.448Z,11.42
2022-10-05T01:34:25.432Z,11.41
2022-10-05T01:35:25.447Z,11.42
2022-10-05T01:36:25.440Z,11.39
2022-10-05T01:37:25.412Z,11.38
2022-10-05T01:38:25.383Z,11.36
2022-10-05T01:39:25.373Z,11.35
2022-10-05T01:40:25.383Z,11.38
2022-10-05T01:41:25.364Z,11.36
2022-10-05T01:42:25.383Z,11.38
2022-10-05T01:43:25.335Z,11.38
2022-10-05T01:44:25.327Z,11.36
2022-10-05T01:45:25.313Z,11.36
2022-10-05T01:46:25.323Z,11.35
2022-10-05T01:47:25.303Z,11.35
2022-10-05T01:48:25.294Z,11.35
2022-10-05T01:49:25.296Z,11.33
2022-10-05T01:50:25.274Z,11.36
2022-10-05T01:51:25.265Z,11.36
2022-10-05T01:52:25.237Z,11.31
2022-10-05T01:53:25.245Z,11.30
2022-10-05T01:54:25.236Z,11.28
2022-10-05T01:55:25.204Z,11.28
2022-10-05T01:56:25.195Z,11.30
2022-10-05T01:57:25.175Z,11.27
2022-10-05T01:58:25.174Z,11.30
2022-10-05T01:59:25.186Z,11.28
2022-10-05T02:00:25.158Z,11.26
2022-10-05T02:01:25.241Z,11.24
2022-10-05T02:02:25.206Z,11.26
2022-10-05T02:03:25.116Z,11.26
2022-10-05T02:04:59.960Z,11.24
2022-10-05T02:05:26.096Z,11.24
2022-10-05T02:06:25.104Z,11.24
2022-10-05T02:07:25.087Z,11.24
2022-10-05T02:08:25.097Z,11.23
2022-10-05T02:09:25.067Z,11.23
2022-10-05T02:10:25.050Z,11.24
2022-10-05T02:11:25.047Z,11.23
2022-10-05T02:12:25.040Z,11.20
2022-10-05T02:13:25.048Z,11.19
2022-10-05T02:14:25.037Z,11.17
2022-10-05T02:15:24.988Z,11.13
2022-10-05T02:16:25.101Z,11.13
2022-10-05T02:17:24.981Z,11.12
2022-10-05T02:18:24.989Z,11.11
2022-10-05T02:19:24.973Z,11.11
2022-10-05T02:20:24.963Z,11.06
2022-10-05T02:21:24.957Z,11.08
2022-10-05T02:22:24.919Z,11.08
2022-10-05T02:23:24.916Z,11.09
2022-10-05T02:24:24.929Z,11.11
2022-10-05T02:25:24.900Z,11.11
2022-10-05T02:26:24.888Z,11.09
2022-10-05T02:27:24.872Z,11.09
2022-10-05T02:28:24.928Z,11.08
2022-10-05T02:29:24.840Z,11.08
2022-10-05T02:30:24.860Z,11.08
2022-10-05T02:31:24.883Z,11.08
2022-10-05T02:32:24.820Z,11.05
2022-10-05T02:33:24.818Z,11.08
2022-10-05T02:34:24.801Z,11.08
2022-10-05T02:35:24.791Z,11.08
2022-10-05T02:36:24.804Z,11.03
2022-10-05T02:37:24.772Z,11.03
2022-10-05T02:38:24.748Z,11.01
2022-10-05T02:39:24.732Z,11.02
2022-10-05T02:40:24.733Z,11.02
2022-10-05T02:41:24.723Z,10.99
2022-10-05T02:42:24.711Z,10.99
2022-10-05T02:43:24.702Z,10.98
2022-10-05T02:44:24.683Z,10.94
2022-10-05T02:45:24.685Z,10.95
2022-10-05T02:46:24.741Z,10.94
2022-10-05T02:47:24.654Z,10.94
2022-10-05T02:48:24.670Z,10.93
2022-10-05T02:49:24.635Z,10.91
2022-10-05T02:50:24.615Z,10.90
2022-10-05T02:51:24.624Z,10.88
2022-10-05T02:52:24.613Z,10.87
2022-10-05T02:53:24.614Z,10.90
2022-10-05T02:54:24.604Z,10.87
2022-10-05T02:55:24.594Z,10.87
2022-10-05T02:56:24.575Z,10.84
2022-10-05T02:57:24.542Z,10.86
2022-10-05T02:58:24.536Z,10.87
2022-10-05T02:59:24.545Z,10.87
2022-10-05T03:00:24.538Z,10.87
2022-10-05T03:01:24.535Z,10.86
2022-10-05T03:02:24.597Z,10.84
2022-10-05T03:03:24.477Z,10.81
2022-10-05T03:04:24.486Z,10.80
2022-10-05T03:05:24.467Z,10.80
2022-10-05T03:06:24.456Z,10.81
2022-10-05T03:07:24.447Z,10.80
2022-10-05T03:08:24.444Z,10.81
2022-10-05T03:09:24.416Z,10.80
2022-10-05T03:10:24.406Z,10.80
2022-10-05T03:11:24.398Z,10.76
2022-10-05T03:12:24.397Z,10.78
2022-10-05T03:13:24.402Z,10.76
2022-10-05T03:14:24.397Z,10.72
2022-10-05T03:15:24.347Z,10.72
2022-10-05T03:16:24.383Z,10.72
2022-10-05T03:17:24.338Z,10.69
2022-10-05T03:18:28.568Z,10.69
2022-10-05T03:19:25.321Z,10.69
2022-10-05T03:20:24.309Z,10.69
2022-10-05T03:21:24.318Z,10.70
2022-10-05T03:22:24.278Z,10.69
2022-10-05T03:23:24.269Z,10.69
2022-10-05T03:24:24.277Z,10.69
2022-10-05T03:25:24.258Z,10.66
2022-10-05T03:26:24.271Z,10.66
2022-10-05T03:27:24.219Z,10.66
2022-10-05T03:28:24.427Z,10.65
2022-10-05T03:29:24.199Z,10.65
2022-10-05T03:30:24.209Z,10.63
2022-10-05T03:31:24.224Z,10.65
2022-10-05T03:32:24.170Z,10.63
2022-10-05T03:33:24.192Z,10.62
2022-10-05T03:34:24.162Z,10.60
2022-10-05T03:35:24.151Z,10.60
2022-10-05T03:36:24.149Z,10.58
2022-10-05T03:37:24.142Z,10.57
2022-10-05T03:38:24.114Z,10.54
2022-10-05T03:39:24.113Z,10.54
2022-10-05T03:40:24.100Z,10.52
2022-10-05T03:41:24.089Z,10.52
2022-10-05T03:42:24.061Z,10.49
2022-10-05T03:43:24.079Z,10.47
2022-10-05T03:44:24.052Z,10.47
2022-10-05T03:45:24.043Z,10.46
2022-10-05T03:46:24.095Z,10.46
2022-10-05T03:47:24.019Z,10.44
2022-10-05T03:48:24.024Z,10.44
2022-10-05T03:49:24.015Z,10.44
2022-10-05T03:50:23.985Z,10.43
2022-10-05T03:51:23.994Z,10.44
2022-10-05T03:52:23.973Z,10.44
2022-10-05T03:53:23.966Z,10.42
2022-10-05T03:54:23.947Z,10.42
2022-10-05T03:55:23.925Z,10.42
2022-10-05T03:56:23.913Z,10.44
2022-10-05T03:57:23.906Z,10.44
2022-10-05T03:58:23.901Z,10.44
2022-10-05T03:59:24.672Z,10.43
2022-10-05T04:00:23.889Z,10.44
2022-10-05T04:01:23.949Z,10.43
2022-10-05T04:02:23.908Z,10.43
2022-10-05T04:03:23.873Z,10.42
2022-10-05T04:04:23.845Z,10.44
2022-10-05T04:05:23.814Z,10.43
2022-10-05T04:06:23.826Z,10.43
2022-10-05T04:07:23.795Z,10.42
2022-10-05T04:08:23.804Z,10.39
2022-10-05T04:09:23.785Z,10.36
2022-10-05T04:10:23.765Z,10.36
2022-10-05T04:11:23.765Z,10.38
2022-10-05T04:12:23.793Z,10.36
2022-10-05T04:13:23.735Z,10.36
2022-10-05T04:14:23.758Z,10.36
2022-10-05T04:15:23.719Z,10.35
2022-10-05T04:16:23.787Z,10.35
2022-10-05T04:17:23.687Z,10.34
2022-10-05T04:18:23.710Z,10.32
2022-10-05T04:19:23.684Z,10.32
2022-10-05T04:20:23.677Z,10.32
2022-10-05T04:21:24.187Z,10.31
2022-10-05T04:22:23.667Z,10.31
2022-10-05T04:23:23.627Z,10.32
2022-10-05T04:24:23.670Z,10.31
2022-10-05T04:25:23.619Z,10.29
2022-10-05T04:26:23.618Z,10.31
2022-10-05T04:27:23.608Z,10.31
2022-10-05T04:28:27.011Z,10.29
2022-10-05T04:29:24.595Z,10.29
2022-10-05T04:30:23.588Z,10.28
2022-10-05T04:31:23.640Z,10.28
2022-10-05T04:32:23.561Z,10.31
2022-10-05T04:33:23.548Z,10.31
2022-10-05T04:34:23.526Z,10.26
2022-10-05T04:35:23.547Z,10.26
2022-10-05T04:36:23.546Z,10.26
2022-10-05T04:37:23.489Z,10.26
2022-10-05T04:38:23.481Z,10.26
2022-10-05T04:39:23.460Z,10.26
2022-10-05T04:40:23.450Z,10.28
2022-10-05T04:41:23.454Z,10.26
2022-10-05T04:42:23.459Z,10.25
2022-10-05T04:43:23.410Z,10.26
2022-10-05T04:44:23.420Z,10.28
2022-10-05T04:45:23.411Z,10.29
2022-10-05T04:46:23.453Z,10.29
2022-10-05T04:47:23.377Z,10.29
2022-10-05T04:48:23.378Z,10.29
2022-10-05T04:49:23.356Z,10.29
2022-10-05T04:50:23.351Z,10.28
2022-10-05T04:51:23.351Z,10.28
2022-10-05T04:52:23.353Z,10.29
2022-10-05T04:53:23.321Z,10.26
2022-10-05T04:54:23.323Z,10.26
2022-10-05T04:55:23.321Z,10.24
2022-10-05T04:56:23.279Z,10.24
2022-10-05T04:57:23.292Z,10.24
2022-10-05T04:58:23.252Z,10.22
2022-10-05T04:59:23.253Z,10.22
2022-10-05T05:00:23.244Z,10.18
2022-10-05T05:01:23.258Z,10.20
2022-10-05T05:02:23.212Z,10.18
2022-10-05T05:03:23.251Z,10.18
2022-10-05T05:04:23.232Z,10.20
2022-10-05T05:05:23.186Z,10.18
2022-10-05T05:06:23.163Z,10.18
2022-10-05T05:07:23.163Z,10.18
2022-10-05T05:08:23.144Z,10.17
2022-10-05T05:09:23.170Z,10.17
2022-10-05T05:10:23.124Z,10.16
2022-10-05T05:11:24.679Z,10.16
2022-10-05T05:12:23.125Z,10.16
2022-10-05T05:13:23.125Z,10.16
2022-10-05T05:14:23.084Z,10.16
2022-10-05T05:15:23.065Z,10.14
2022-10-05T05:16:23.133Z,10.14
2022-10-05T05:17:23.078Z,10.11
2022-10-05T05:18:23.060Z,10.10
2022-10-05T05:19:23.055Z,10.09
2022-10-05T05:20:23.015Z,10.06
2022-10-05T05:21:23.022Z,10.06
2022-10-05T05:22:23.032Z,10.06
2022-10-05T05:23:22.995Z,10.06
2022-10-05T05:24:22.996Z,10.06
2022-10-05T05:25:22.957Z,10.04
2022-10-05T05:26:22.957Z,10.06
2022-10-05T05:27:22.957Z,10.04
2022-10-05T05:28:23.025Z,10.02
2022-10-05T05:29:22.916Z,10.02
2022-10-05T05:30:22.978Z,10.04
2022-10-05T05:31:22.924Z,10.01
2022-10-05T05:32:22.907Z,10.01
2022-10-05T05:33:22.876Z,10.01
2022-10-05T05:34:22.867Z,9.99
2022-10-05T05:35:22.867Z,9.99
2022-10-05T05:36:23.508Z,9.99
2022-10-05T05:37:22.838Z,9.98
2022-10-05T05:38:22.851Z,9.98
2022-10-05T05:39:22.825Z,9.99
2022-10-05T05:40:22.815Z,9.98
2022-10-05T05:41:22.790Z,9.96
2022-10-05T05:42:22.813Z,9.96
2022-10-05T05:43:22.780Z,9.96
2022-10-05T05:44:22.768Z,9.96
2022-10-05T05:45:22.769Z,9.98
2022-10-05T05:46:33.953Z,9.98
2022-10-05T05:47:23.796Z,9.96
2022-10-05T05:48:22.727Z,9.96
2022-10-05T05:49:22.728Z,9.96
2022-10-05T05:50:22.689Z,9.93
2022-10-05T05:51:22.689Z,9.93
2022-10-05T05:52:22.670Z,9.93
2022-10-05T05:53:22.682Z,9.92
2022-10-05T05:54:22.650Z,9.93
2022-10-05T05:55:26.449Z,9.93
2022-10-05T05:56:23.641Z,9.93
2022-10-05T05:57:22.640Z,9.96
2022-10-05T05:58:22.629Z,9.95
2022-10-05T05:59:22.621Z,9.96
2022-10-05T06:00:22.608Z,9.96
2022-10-05T06:01:32.636Z,9.96
2022-10-05T06:02:23.723Z,9.96
2022-10-05T06:03:22.718Z,9.98
2022-10-05T06:04:22.563Z,9.98
2022-10-05T06:05:22.552Z,9.99
2022-10-05T06:06:22.532Z,9.99
2022-10-05T06:07:25.699Z,10.01
2022-10-05T06:08:23.523Z,10.01
2022-10-05T06:09:22.512Z,10.02
2022-10-05T06:10:22.490Z,10.01
2022-10-05T06:11:22.483Z,10.02
2022-10-05T06:12:22.491Z,10.02
2022-10-05T06:13:22.472Z,10.01
2022-10-05T06:14:22.491Z,10.01
2022-10-05T06:15:22.434Z,10.04
2022-10-05T06:16:22.454Z,10.04
2022-10-05T06:17:22.413Z,10.06
2022-10-05T06:18:22.401Z,10.06
2022-10-05T06:19:22.426Z,10.04
2022-10-05T06:20:22.373Z,10.06
2022-10-05T06:21:22.373Z,10.06
2022-10-05T06:22:22.367Z,10.04
2022-10-05T06:23:22.383Z,10.04
2022-10-05T06:24:22.355Z,10.07
2022-10-05T06:25:22.343Z,10.10
2022-10-05T06:26:22.344Z,10.11
2022-10-05T06:27:22.303Z,10.11
2022-10-05T06:28:22.320Z,10.14
2022-10-05T06:29:22.395Z,10.13
2022-10-05T06:30:22.276Z,10.13
2022-10-05T06:31:22.333Z,10.14
2022-10-05T06:32:22.263Z,10.14
2022-10-05T06:33:22.276Z,10.17
2022-10-05T06:34:22.225Z,10.16
2022-10-05T06:35:22.234Z,10.17
2022-10-05T06:36:22.215Z,10.17
2022-10-05T06:37:22.196Z,10.17
2022-10-05T06:38:22.213Z,10.18
2022-10-05T06:39:22.181Z,10.22
2022-10-05T06:40:22.157Z,10.22
2022-10-05T06:41:22.166Z,10.25
2022-10-05T06:42:22.154Z,10.25
2022-10-05T06:43:22.163Z,10.28
2022-10-05T06:44:22.117Z,10.31
2022-10-05T06:45:22.118Z,10.32
2022-10-05T06:46:22.226Z,10.32
2022-10-05T06:47:22.127Z,10.36
2022-10-05T06:48:22.098Z,10.35
2022-10-05T06:49:22.067Z,10.38
2022-10-05T06:50:22.092Z,10.39
2022-10-05T06:51:22.058Z,10.42
2022-10-05T06:52:22.028Z,10.43
2022-10-05T06:53:22.027Z,10.46
2022-10-05T06:54:22.029Z,10.49
2022-10-05T06:55:22.021Z,10.51
2022-10-05T06:56:22.018Z,10.54
2022-10-05T06:57:21.997Z,10.54
2022-10-05T06:58:21.982Z,10.57
2022-10-05T06:59:21.959Z,10.57
2022-10-05T07:00:21.960Z,10.58
2022-10-05T07:01:22.012Z,10.62
2022-10-05T07:02:22.026Z,10.62
2022-10-05T07:03:21.922Z,10.68
2022-10-05T07:04:21.901Z,10.69
2022-10-05T07:05:21.909Z,10.73
2022-10-05T07:06:21.930Z,10.75
2022-10-05T07:07:21.877Z,10.76
2022-10-05T07:08:21.890Z,10.78
2022-10-05T07:09:21.869Z,10.81
2022-10-05T07:10:21.850Z,10.84
2022-10-05T07:11:21.871Z,10.84
2022-10-05T07:12:21.820Z,10.88
2022-10-05T07:13:21.832Z,10.91
2022-10-05T07:14:21.800Z,10.91
2022-10-05T07:15:21.791Z,10.94
2022-10-05T07:16:21.828Z,10.95
2022-10-05T07:17:21.783Z,10.99
2022-10-05T07:18:21.753Z,11.01
2022-10-05T07:19:21.769Z,11.02
2022-10-05T07:20:21.733Z,11.03
2022-10-05T07:21:21.734Z,11.05
2022-10-05T07:22:21.741Z,11.08
2022-10-05T07:23:21.702Z,11.11
2022-10-05T07:24:21.702Z,11.12
2022-10-05T07:25:21.684Z,11.16
2022-10-05T07:26:21.675Z,11.17
2022-10-05T07:27:21.662Z,11.20
2022-10-05T07:28:21.728Z,11.21
2022-10-05T07:29:21.651Z,11.24
2022-10-05T07:30:21.640Z,11.26
2022-10-05T07:31:21.706Z,11.30
2022-10-05T07:32:21.613Z,11.31
2022-10-05T07:33:21.603Z,11.36
2022-10-05T07:34:21.604Z,11.36
2022-10-05T07:35:21.583Z,11.39
2022-10-05T07:36:21.585Z,11.41
2022-10-05T07:37:21.575Z,11.44
2022-10-05T07:38:21.574Z,11.45
2022-10-05T07:39:21.542Z,11.46
2022-10-05T07:40:21.517Z,11.49
2022-10-05T07:41:21.546Z,11.53
2022-10-05T07:42:21.515Z,11.54
2022-10-05T07:43:21.508Z,11.56
2022-10-05T07:44:21.506Z,11.60
2022-10-05T07:45:21.496Z,11.62
2022-10-05T07:46:21.547Z,11.63
2022-10-05T07:47:21.464Z,11.64
2022-10-05T07:48:21.457Z,11.64
2022-10-05T07:49:21.444Z,11.66
2022-10-05T07:50:21.417Z,11.70
2022-10-05T07:51:21.415Z,11.70
2022-10-05T07:52:21.388Z,11.74
2022-10-05T07:53:21.409Z,11.78
2022-10-05T07:54:21.397Z,11.79
2022-10-05T07:55:21.371Z,11.81
2022-10-05T07:56:21.398Z,11.82
2022-10-05T07:57:21.348Z,11.85
2022-10-05T07:58:21.349Z,11.88
2022-10-05T07:59:21.318Z,11.90
2022-10-05T08:00:21.381Z,11.94
2022-10-05T08:01:21.341Z,11.98
2022-10-05T08:02:21.384Z,12.01
2022-10-05T08:03:21.312Z,12.03
2022-10-05T08:04:21.316Z,12.05
2022-10-05T08:05:21.267Z,12.08
2022-10-05T08:06:21.259Z,12.11
2022-10-05T08:07:21.300Z,12.15
2022-10-05T08:08:21.229Z,12.21
2022-10-05T08:09:21.230Z,12.23
2022-10-05T08:10:21.256Z,12.26
2022-10-05T08:11:21.207Z,12.30
2022-10-05T08:12:21.181Z,12.31
2022-10-05T08:13:21.170Z,12.36
2022-10-05T08:14:21.171Z,12.36
2022-10-05T08:15:21.153Z,12.38
2022-10-05T08:16:21.207Z,12.43
2022-10-05T08:17:25.433Z,12.46
2022-10-05T08:18:22.135Z,12.48
2022-10-05T08:19:21.102Z,12.51
2022-10-05T08:20:21.230Z,12.54
2022-10-05T08:21:21.102Z,12.55
2022-10-05T08:22:21.100Z,12.56
2022-10-05T08:23:21.082Z,12.58
2022-10-05T08:24:21.063Z,12.61
2022-10-05T08:25:21.065Z,12.61
2022-10-05T08:26:21.063Z,12.63
2022-10-05T08:27:21.025Z,12.66
2022-10-05T08:28:21.074Z,12.69
2022-10-05T08:29:21.012Z,12.71
2022-10-05T08:30:21.026Z,12.73
2022-10-05T08:31:21.055Z,12.76
2022-10-05T08:32:20.984Z,12.79
2022-10-05T08:33:20.981Z,12.80
2022-10-05T08:34:20.955Z,12.80
2022-10-05T08:35:20.945Z,12.84
2022-10-05T08:36:20.933Z,12.85
2022-10-05T08:37:20.935Z,12.88
2022-10-05T08:38:20.905Z,12.91
2022-10-05T08:39:20.904Z,12.92
2022-10-05T08:40:20.904Z,12.96
2022-10-05T08:41:20.874Z,12.98
2022-10-05T08:42:20.882Z,12.99
2022-10-05T08:43:20.874Z,13.04
2022-10-05T08:44:20.884Z,13.07
2022-10-05T08:45:20.836Z,13.10
2022-10-05T08:46:20.872Z,13.13
2022-10-05T08:47:20.805Z,13.16
2022-10-05T08:48:20.805Z,13.21
2022-10-05T08:49:20.808Z,13.22
2022-10-05T08:50:20.786Z,13.25
2022-10-05T08:51:20.786Z,13.28
2022-10-05T08:52:20.757Z,13.31
2022-10-05T08:53:20.755Z,13.36
2022-10-05T08:54:20.738Z,13.39
2022-10-05T08:55:20.750Z,13.44
2022-10-05T08:56:23.119Z,13.47
2022-10-05T08:57:21.735Z,13.51
2022-10-05T08:58:20.688Z,13.54
2022-10-05T08:59:20.698Z,13.59
2022-10-05T09:00:20.679Z,13.61
2022-10-05T09:01:20.759Z,13.68
2022-10-05T09:02:20.705Z,13.71
2022-10-05T09:03:20.651Z,13.75
2022-10-05T09:04:20.633Z,13.79
2022-10-05T09:05:20.608Z,13.81
2022-10-05T09:06:20.599Z,13.83
2022-10-05T09:07:20.607Z,13.84
2022-10-05T09:08:20.631Z,13.87
2022-10-05T09:09:20.589Z,13.91
2022-10-05T09:10:20.560Z,13.91
2022-10-05T09:11:20.570Z,13.98
2022-10-05T09:12:20.556Z,13.99
2022-10-05T09:13:20.538Z,14.01
2022-10-05T09:14:20.528Z,14.06
2022-10-05T09:15:25.853Z,14.11
2022-10-05T09:16:21.541Z,14.16
2022-10-05T09:17:20.494Z,14.17
2022-10-05T09:18:20.491Z,14.23
2022-10-05T09:19:20.471Z,14.30
2022-10-05T09:20:20.451Z,14.35
2022-10-05T09:21:20.511Z,14.41
2022-10-05T09:22:20.434Z,14.44
2022-10-05T09:23:20.422Z,14.48
2022-10-05T09:24:20.432Z,14.52
2022-10-05T09:25:20.412Z,14.53
2022-10-05T09:26:20.428Z,14.54
2022-10-05T09:27:20.409Z,14.57
2022-10-05T09:28:20.442Z,14.57
2022-10-05T09:29:20.362Z,14.60
2022-10-05T09:30:20.343Z,14.64
2022-10-05T09:31:20.406Z,14.71
2022-10-05T09:32:20.360Z,14.74
2022-10-05T09:33:20.334Z,14.78
2022-10-05T09:34:20.314Z,14.82
2022-10-05T09:35:20.313Z,14.83
2022-10-05T09:36:20.302Z,14.86
2022-10-05T09:37:20.285Z,14.91
2022-10-05T09:38:20.284Z,14.93
2022-10-05T09:39:20.275Z,14.94
2022-10-05T09:40:20.246Z,14.98
2022-10-05T09:41:20.255Z,15.03
2022-10-05T09:42:20.265Z,15.09
2022-10-05T09:43:20.220Z,15.13
2022-10-05T09:44:20.215Z,15.16
2022-10-05T09:45:21.480Z,15.20
2022-10-05T09:46:20.305Z,15.27
2022-10-05T09:47:20.197Z,15.30
2022-10-05T09:48:20.158Z,15.33
2022-10-05T09:49:20.167Z,15.44
2022-10-05T09:50:20.154Z,15.51
2022-10-05T09:51:20.167Z,15.59
2022-10-05T09:52:20.131Z,15.66
2022-10-05T09:53:20.096Z,15.68
2022-10-05T09:54:20.122Z,15.73
2022-10-05T09:55:20.077Z,15.77
2022-10-05T09:56:20.123Z,15.80
2022-10-05T09:57:20.057Z,15.85
2022-10-05T09:58:20.068Z,15.88
2022-10-05T09:59:20.050Z,15.89
2022-10-05T10:00:20.058Z,15.95
2022-10-05T10:01:33.198Z,15.98
2022-10-05T10:02:21.132Z,16.01
2022-10-05T10:03:20.029Z,16.07
2022-10-05T10:04:19.999Z,16.10
2022-10-05T10:05:19.970Z,16.16
2022-10-05T10:06:19.990Z,16.18
2022-10-05T10:07:19.951Z,16.23
2022-10-05T10:08:19.962Z,16.32
2022-10-05T10:09:19.970Z,16.37
2022-10-05T10:10:19.921Z,16.45
2022-10-05T10:11:19.948Z,16.51
2022-10-05T10:12:19.939Z,16.57
2022-10-05T10:13:19.901Z,16.63
2022-10-05T10:14:19.891Z,16.67
2022-10-05T10:15:19.872Z,16.70
2022-10-05T10:16:19.984Z,16.75
2022-10-05T10:17:19.885Z,16.78
2022-10-05T10:18:19.876Z,16.84
2022-10-05T10:19:19.839Z,16.88
2022-10-05T10:20:19.844Z,16.98
2022-10-05T10:21:19.834Z,17.00
2022-10-05T10:22:19.813Z,17.06
2022-10-05T10:23:19.791Z,17.10
2022-10-05T10:24:19.787Z,17.17
2022-10-05T10:25:19.753Z,17.22
2022-10-05T10:26:19.758Z,17.28
2022-10-05T10:27:19.755Z,17.33
2022-10-05T10:28:20.001Z,17.42
2022-10-05T10:29:19.771Z,17.47
2022-10-05T10:30:19.716Z,17.53
2022-10-05T10:31:19.736Z,17.60
2022-10-05T10:32:19.705Z,17.66
2022-10-05T10:33:19.698Z,17.73
2022-10-05T10:34:19.694Z,17.80
2022-10-05T10:35:19.995Z,17.86
2022-10-05T10:36:19.651Z,17.91
2022-10-05T10:37:19.657Z,17.96
2022-10-05T10:38:19.617Z,18.05
2022-10-05T10:39:19.639Z,18.10
2022-10-05T10:40:19.604Z,18.14
2022-10-05T10:41:19.592Z,18.21
2022-10-05T10:42:23.886Z,18.32
2022-10-05T10:43:20.567Z,18.36
2022-10-05T10:44:19.588Z,18.46
2022-10-05T10:45:19.541Z,18.51
2022-10-05T10:46:19.593Z,18.57
2022-10-05T10:47:19.528Z,18.64
2022-10-05T10:48:19.529Z,18.68
2022-10-05T10:49:19.499Z,18.76
2022-10-05T10:50:19.491Z,18.86
2022-10-05T10:51:19.489Z,18.93
2022-10-05T10:52:19.477Z,18.99
2022-10-05T10:53:19.490Z,19.07
2022-10-05T10:54:19.451Z,19.13
2022-10-05T10:55:19.463Z,19.24
2022-10-05T10:56:19.436Z,19.31
2022-10-05T10:57:19.428Z,19.42
2022-10-05T10:58:19.477Z,19.50
2022-10-05T10:59:19.413Z,19.58
2022-10-05T11:00:19.389Z,19.65
2022-10-05T11:01:19.460Z,19.70
2022-10-05T11:02:19.439Z,19.78
2022-10-05T11:03:19.352Z,19.80
2022-10-05T11:04:19.360Z,19.82
2022-10-05T11:05:19.335Z,19.85
2022-10-05T11:06:19.343Z,19.97
2022-10-05T11:07:19.313Z,20.05
2022-10-05T11:08:19.303Z,20.16
2022-10-05T11:09:19.301Z,20.23
2022-10-05T11:10:19.314Z,20.31
2022-10-05T11:11:19.275Z,20.38
2022-10-05T11:12:19.274Z,20.44
2022-10-05T11:13:19.249Z,20.53
2022-10-05T11:14:19.255Z,20.60
2022-10-05T11:15:19.236Z,20.64
2022-10-05T11:16:19.920Z,20.71
2022-10-05T11:17:19.207Z,20.78
2022-10-05T11:18:19.207Z,20.83
2022-10-05T11:19:19.197Z,20.88
2022-10-05T11:20:19.175Z,20.94
2022-10-05T11:21:19.217Z,21.03
2022-10-05T11:22:19.176Z,21.13
2022-10-05T11:23:19.138Z,21.21
2022-10-05T11:24:19.129Z,21.31
2022-10-05T11:25:19.138Z,21.40
2022-10-05T11:26:19.134Z,21.49
2022-10-05T11:27:19.137Z,21.56
2022-10-05T11:28:19.154Z,21.68
2022-10-05T11:29:19.089Z,21.75
2022-10-05T11:30:19.077Z,21.85
2022-10-05T11:31:19.124Z,21.96
2022-10-05T11:32:19.079Z,22.05
2022-10-05T11:33:19.040Z,22.15
2022-10-05T11:34:19.021Z,22.30
2022-10-05T11:35:19.040Z,22.45
2022-10-05T11:36:19.001Z,22.60
2022-10-05T11:37:19.042Z,22.75
2022-10-05T11:38:18.982Z,22.81
2022-10-05T11:39:18.980Z,22.93
2022-10-05T11:40:18.972Z,23.04
2022-10-05T11:41:18.943Z,23.21
2022-10-05T11:42:18.953Z,23.41
2022-10-05T11:43:18.933Z,23.57
2022-10-05T11:44:18.916Z,23.78
2022-10-05T11:45:18.905Z,23.96
2022-10-05T11:46:18.972Z,24.19
2022-10-05T11:47:18.885Z,24.42
2022-10-05T11:48:18.875Z,24.63
2022-10-05T11:49:18.856Z,24.93
2022-10-05T11:50:18.863Z,25.24
2022-10-05T11:51:18.858Z,25.64
2022-10-05T11:52:18.835Z,26.13
2022-10-05T11:53:18.817Z,26.76
2022-10-05T11:54:18.839Z,27.58
2022-10-05T11:55:18.807Z,28.46
2022-10-05T11:56:18.819Z,29.18
2022-10-05T11:57:19.496Z,29.92
2022-10-05T11:58:18.768Z,30.59
2022-10-05T11:59:18.783Z,31.30
2022-10-05T12:00:18.749Z,31.78
2022-10-05T12:01:18.730Z,32.46
2022-10-05T12:02:18.781Z,33.28
2022-10-05T12:03:18.782Z,33.84
2022-10-05T12:04:18.712Z,34.73
2022-10-05T12:05:18.691Z,35.62
2022-10-05T12:06:18.711Z,36.84
2022-10-05T12:07:18.682Z,37.91
2022-10-05T12:08:18.663Z,38.50
2022-10-05T12:09:18.674Z,39.09
2022-10-05T12:10:18.673Z,39.61
2022-10-05T12:11:18.634Z,39.85
2022-10-05T12:12:18.624Z,39.97
2022-10-05T12:13:18.655Z,40.29
2022-10-05T12:14:18.617Z,40.41
2022-10-05T12:15:18.593Z,40.41
2022-10-05T12:16:18.697Z,41.00
2022-10-05T12:17:18.578Z,41.20
2022-10-05T12:18:18.577Z,41.04
2022-10-05T12:19:18.547Z,40.79
2022-10-05T12:20:18.555Z,40.53
2022-10-05T12:21:18.575Z,40.25
2022-10-05T12:22:18.519Z,40.36
2022-10-05T12:23:18.518Z,40.82
2022-10-05T12:24:21.190Z,41.50
2022-10-05T12:25:18.500Z,42.17
2022-10-05T12:26:18.491Z,42.55
2022-10-05T12:27:18.511Z,42.94
2022-10-05T12:28:18.542Z,43.37
2022-10-05T12:29:18.465Z,43.67
2022-10-05T12:30:18.472Z,43.91
2022-10-05T12:31:18.500Z,43.86
2022-10-05T12:32:18.451Z,44.08
2022-10-05T12:33:18.415Z,44.32
2022-10-05T12:34:18.433Z,44.64
2022-10-05T12:35:36.564Z,44.98
2022-10-05T12:36:19.405Z,45.27
2022-10-05T12:37:18.385Z,45.45
2022-10-05T12:38:18.387Z,45.57
2022-10-05T12:39:18.376Z,45.57
2022-10-05T12:40:18.377Z,45.85
2022-10-05T12:41:18.355Z,45.83
2022-10-05T12:42:18.348Z,45.92
2022-10-05T12:43:18.339Z,45.80
2022-10-05T12:44:18.350Z,45.79
2022-10-05T12:45:18.320Z,45.82
2022-10-05T12:46:18.300Z,45.51
2022-10-05T12:47:18.311Z,45.80
2022-10-05T12:48:18.280Z,45.53
2022-10-05T12:49:18.291Z,45.35
2022-10-05T12:50:18.289Z,45.41
2022-10-05T12:51:18.255Z,45.46
2022-10-05T12:52:18.280Z,45.64
2022-10-05T12:53:18.252Z,45.75